createdAt,value
2022-08-28T00:00:24.877Z,92.07
2022-08-28T00:02:51.431Z,92.47
2022-08-28T00:05:19.300Z,92.62
2022-08-28T00:07:47.921Z,92.44
2022-08-28T00:10:15.548Z,92.56
2022-08-28T00:12:41.996Z,92.54
2022-08-28T00:15:12.954Z,91.67
2022-08-28T00:17:40.690Z,91.21
2022-08-28T00:20:07.945Z,90.89
2022-08-28T00:22:34.557Z,91.22
2022-08-28T00:25:01.091Z,91.55
2022-08-28T00:27:46.279Z,91.52
2022-08-28T00:30:12.772Z,91.84
2022-08-28T00:32:39.242Z,92.00
2022-08-28T00:35:06.676Z,92.15
2022-08-28T00:37:33.685Z,92.95
2022-08-28T00:40:00.174Z,93.01
2022-08-28T00:42:27.510Z,92.51
2022-08-28T00:44:53.942Z,91.42
2022-08-28T00:47:20.377Z,91.35
2022-08-28T00:49:51.354Z,91.11
2022-08-28T00:52:18.986Z,91.38
2022-08-28T00:54:59.313Z,91.36
2022-08-28T00:57:31.179Z,91.66
2022-08-28T00:59:58.536Z,91.54
2022-08-28T01:02:25.437Z,91.49
2022-08-28T01:04:52.006Z,91.79
2022-08-28T01:07:18.933Z,91.91
2022-08-28T01:09:47.511Z,92.63
2022-08-28T01:12:24.379Z,92.38
2022-08-28T01:14:58.556Z,92.08
2022-08-28T01:17:25.845Z,92.17
2022-08-28T01:19:57.175Z,92.45
2022-08-28T01:22:23.584Z,92.22
2022-08-28T01:24:52.520Z,91.84
2022-08-28T01:27:19.175Z,92.18
2022-08-28T01:29:45.730Z,92.13
2022-08-28T01:32:14.835Z,92.29
2022-08-28T01:34:41.402Z,92.42
2022-08-28T01:37:07.793Z,92.43
2022-08-28T01:39:35.838Z,92.54
2022-08-28T01:42:03.781Z,92.88
2022-08-28T01:44:30.190Z,92.98
2022-08-28T01:46:57.898Z,93.44
2022-08-28T01:49:24.888Z,94.04
2022-08-28T01:51:52.407Z,93.80
2022-08-28T01:54:21.454Z,93.89
2022-08-28T01:56:47.882Z,94.38
2022-08-28T01:59:14.550Z,93.88
2022-08-28T02:01:43.016Z,93.85
2022-08-28T02:04:10.343Z,94.03
2022-08-28T02:06:37.950Z,93.52
2022-08-28T02:09:05.735Z,93.92
2022-08-28T02:11:33.025Z,94.09
2022-08-28T02:14:00.313Z,94.45
2022-08-28T02:16:27.394Z,94.83
2022-08-28T02:18:53.797Z,94.97
2022-08-28T02:21:20.387Z,95.01
2022-08-28T02:23:49.672Z,95.43
2022-08-28T02:26:16.303Z,95.50
2022-08-28T02:28:43.397Z,95.88
2022-08-28T02:31:10.136Z,95.84
2022-08-28T02:33:43.669Z,95.78
2022-08-28T02:36:13.138Z,95.85
2022-08-28T02:38:39.691Z,96.12
2022-08-28T02:41:06.894Z,95.85
2022-08-28T02:43:33.388Z,95.91
2022-08-28T02:45:59.970Z,95.98
2022-08-28T02:48:34.260Z,95.76
2022-08-28T02:51:02.748Z,96.17
2022-08-28T02:53:30.047Z,96.28
2022-08-28T02:55:57.146Z,96.29
2022-08-28T02:58:26.010Z,96.47
2022-08-28T03:00:56.137Z,96.37
2022-08-28T03:03:22.607Z,96.46
2022-08-28T03:05:52.871Z,96.06
2022-08-28T03:08:23.437Z,96.07
2022-08-28T03:10:53.879Z,96.09
2022-08-28T03:13:26.764Z,95.92
2022-08-28T03:15:57.792Z,96.13
2022-08-28T03:18:28.752Z,96.23
2022-08-28T03:20:55.896Z,96.08
2022-08-28T03:23:29.062Z,96.18
2022-08-28T03:26:04.915Z,96.23
2022-08-28T03:28:33.893Z,96.09
2022-08-28T03:31:00.663Z,96.28
2022-08-28T03:33:30.584Z,96.31
2022-08-28T03:35:57.831Z,96.57
2022-08-28T03:38:27.402Z,96.43
2022-08-28T03:40:53.933Z,96.33
2022-08-28T03:43:22.244Z,96.45
2022-08-28T03:46:02.603Z,96.75
2022-08-28T03:48:34.459Z,96.77
2022-08-28T03:51:00.918Z,96.77
2022-08-28T03:53:29.120Z,97.17
2022-08-28T03:55:56.227Z,97.23
2022-08-28T03:58:23.343Z,96.95
2022-08-28T04:00:53.233Z,96.92
2022-08-28T04:03:20.728Z,97.00
2022-08-28T04:05:47.813Z,97.46
2022-08-28T04:08:18.820Z,97.33
2022-08-28T04:10:45.890Z,97.29
2022-08-28T04:13:13.110Z,97.43
2022-08-28T04:15:39.730Z,97.63
2022-08-28T04:18:09.894Z,97.55
2022-08-28T04:20:39.541Z,97.70
2022-08-28T04:23:08.372Z,97.64
2022-08-28T04:25:34.771Z,97.62
2022-08-28T04:28:01.199Z,96.99
2022-08-28T04:30:33.939Z,97.20
2022-08-28T04:33:00.374Z,97.08
2022-08-28T04:35:27.058Z,96.96
2022-08-28T04:37:55.592Z,96.99
2022-08-28T04:40:25.133Z,96.79
2022-08-28T04:42:51.757Z,96.46
2022-08-28T04:45:22.079Z,96.37
2022-08-28T04:47:48.971Z,96.42
2022-08-28T04:50:15.369Z,96.49
2022-08-28T04:52:43.483Z,96.43
2022-08-28T04:55:10.491Z,96.20
2022-08-28T04:57:39.979Z,96.42
2022-08-28T05:00:07.111Z,96.61
2022-08-28T05:02:33.644Z,96.87
2022-08-28T05:05:00.117Z,96.73
2022-08-28T05:07:26.553Z,96.66
2022-08-28T05:09:54.084Z,96.65
2022-08-28T05:12:20.513Z,96.61
2022-08-28T05:14:49.851Z,96.89
2022-08-28T05:17:16.276Z,96.47
2022-08-28T05:19:43.782Z,96.53
2022-08-28T05:22:13.770Z,96.71
2022-08-28T05:24:40.523Z,96.73
2022-08-28T05:27:07.389Z,97.06
2022-08-28T05:29:33.819Z,97.25
2022-08-28T05:32:00.334Z,97.53
2022-08-28T05:34:26.872Z,97.97
2022-08-28T05:36:53.253Z,98.21
2022-08-28T05:39:20.795Z,97.99
2022-08-28T05:41:47.267Z,97.77
2022-08-28T05:44:17.292Z,97.93
2022-08-28T05:46:47.418Z,98.16
2022-08-28T05:49:14.646Z,98.13
2022-08-28T05:51:43.758Z,98.04
2022-08-28T05:54:11.108Z,97.98
2022-08-28T05:56:38.719Z,97.84
2022-08-28T05:59:05.935Z,98.12
2022-08-28T06:01:33.700Z,97.61
2022-08-28T06:04:17.981Z,97.80
2022-08-28T06:06:44.794Z,97.76
2022-08-28T06:09:16.866Z,97.81
2022-08-28T06:11:44.812Z,97.63
2022-08-28T06:14:13.624Z,97.27
2022-08-28T06:16:43.024Z,97.12
2022-08-28T06:19:10.407Z,96.49
2022-08-28T06:21:37.579Z,96.45
2022-08-28T06:24:07.409Z,96.57
2022-08-28T06:26:33.856Z,96.48
2022-08-28T06:29:05.309Z,96.50
2022-08-28T06:31:33.413Z,95.70
2022-08-28T06:34:01.455Z,95.49
2022-08-28T06:36:29.371Z,95.45
2022-08-28T06:39:01.041Z,94.82
2022-08-28T06:41:28.105Z,93.96
2022-08-28T06:43:55.079Z,94.19
2022-08-28T06:46:22.016Z,93.61
2022-08-28T06:48:48.482Z,93.14
2022-08-28T06:51:14.993Z,93.18
2022-08-28T06:53:42.311Z,93.37
2022-08-28T06:56:08.907Z,93.26
2022-08-28T06:58:36.981Z,92.06
2022-08-28T07:01:12.207Z,90.38
2022-08-28T07:03:44.241Z,87.68
2022-08-28T07:06:11.766Z,89.10
2022-08-28T07:08:41.704Z,88.83
2022-08-28T07:11:13.979Z,88.88
2022-08-28T07:13:41.354Z,89.23
2022-08-28T07:16:08.131Z,88.45
2022-08-28T07:18:34.779Z,86.83
2022-08-28T07:21:01.230Z,86.84
2022-08-28T07:23:28.539Z,86.72
2022-08-28T07:25:55.058Z,87.00
2022-08-28T07:28:21.884Z,85.65
2022-08-28T07:30:59.095Z,86.50
2022-08-28T07:33:26.704Z,86.96
2022-08-28T07:35:53.567Z,85.85
2022-08-28T07:38:20.685Z,86.29
2022-08-28T07:40:47.349Z,86.83
2022-08-28T07:43:32.444Z,88.33
2022-08-28T07:46:06.560Z,86.05
2022-08-28T07:48:35.103Z,86.33
2022-08-28T07:51:02.188Z,84.87
2022-08-28T07:53:30.396Z,86.16
2022-08-28T07:56:01.344Z,84.45
2022-08-28T07:58:30.587Z,86.24
2022-08-28T08:00:57.613Z,86.66
2022-08-28T08:03:26.034Z,85.67
2022-08-28T08:05:53.984Z,86.19
2022-08-28T08:08:21.368Z,85.64
2022-08-28T08:11:01.913Z,85.50
2022-08-28T08:13:29.594Z,83.26
2022-08-28T08:16:09.712Z,83.33
2022-08-28T08:18:36.208Z,83.76
2022-08-28T08:21:04.630Z,83.59
2022-08-28T08:23:31.039Z,83.24
2022-08-28T08:26:00.143Z,82.16
2022-08-28T08:28:27.433Z,81.87
2022-08-28T08:31:07.748Z,82.94
2022-08-28T08:33:34.855Z,83.34
2022-08-28T08:36:01.262Z,83.31
2022-08-28T08:38:31.394Z,83.93
2022-08-28T08:40:59.454Z,85.04
2022-08-28T08:43:27.681Z,85.57
2022-08-28T08:45:54.316Z,84.36
2022-08-28T08:48:32.154Z,82.96
2022-08-28T08:51:03.192Z,83.70
2022-08-28T08:53:47.952Z,82.53
2022-08-28T08:56:16.864Z,81.65
2022-08-28T08:58:51.214Z,82.12
2022-08-28T09:01:22.143Z,80.87
2022-08-28T09:04:22.294Z,79.46
2022-08-28T09:06:51.731Z,80.88
2022-08-28T09:09:21.180Z,81.28
2022-08-28T09:11:56.990Z,81.76
2022-08-28T09:14:30.373Z,81.30
2022-08-28T09:16:57.745Z,80.56
2022-08-28T09:19:24.215Z,79.29
2022-08-28T09:21:51.066Z,80.67
2022-08-28T09:24:28.470Z,80.99
2022-08-28T09:26:56.679Z,81.39
2022-08-28T09:29:31.726Z,80.97
2022-08-28T09:31:58.588Z,78.54
2022-08-28T09:34:24.993Z,78.04
2022-08-28T09:36:56.089Z,77.34
2022-08-28T09:39:22.511Z,77.02
2022-08-28T09:42:10.023Z,75.96
2022-08-28T09:44:53.991Z,74.94
2022-08-28T09:47:47.226Z,74.58
2022-08-28T09:50:19.721Z,75.32
2022-08-28T09:52:46.195Z,74.97
2022-08-28T09:55:16.002Z,76.15
2022-08-28T09:57:45.215Z,74.64
2022-08-28T10:00:11.842Z,75.64
2022-08-28T10:02:44.663Z,75.59
2022-08-28T10:05:16.212Z,76.87
2022-08-28T10:07:49.851Z,76.14
2022-08-28T10:10:25.224Z,76.75
2022-08-28T10:13:12.095Z,76.83
2022-08-28T10:15:43.323Z,76.16
2022-08-28T10:18:36.109Z,73.70
2022-08-28T10:21:21.989Z,73.24
2022-08-28T10:24:07.316Z,73.63
2022-08-28T10:26:47.227Z,73.85
2022-08-28T10:29:29.097Z,73.15
2022-08-28T10:32:20.462Z,70.30
2022-08-28T10:35:01.543Z,72.19
2022-08-28T10:37:46.619Z,71.08
2022-08-28T10:40:12.991Z,69.60
2022-08-28T10:42:43.521Z,69.12
2022-08-28T10:45:17.339Z,69.12
2022-08-28T10:47:47.753Z,68.33
2022-08-28T10:50:37.176Z,68.87
2022-08-28T10:53:07.210Z,67.37
2022-08-28T10:55:37.797Z,65.79
2022-08-28T10:58:23.794Z,67.50
2022-08-28T11:00:56.973Z,68.16
2022-08-28T11:03:34.397Z,66.33
2022-08-28T11:06:05.772Z,65.48
2022-08-28T11:08:35.250Z,65.89
2022-08-28T11:11:03.125Z,64.89
2022-08-28T11:13:48.160Z,65.95
2022-08-28T11:16:20.592Z,67.14
2022-08-28T11:19:07.284Z,65.29
2022-08-28T11:21:36.504Z,63.88
2022-08-28T11:24:11.217Z,64.94
2022-08-28T11:27:00.566Z,66.05
2022-08-28T11:29:45.520Z,65.51
2022-08-28T11:32:47.109Z,61.47
2022-08-28T11:35:32.286Z,62.92
2022-08-28T11:38:01.714Z,63.20
2022-08-28T11:40:28.245Z,62.60
2022-08-28T11:43:16.417Z,62.37
2022-08-28T11:45:46.701Z,63.68
2022-08-28T11:48:22.692Z,62.83
2022-08-28T11:50:55.240Z,62.63
2022-08-28T11:53:31.587Z,61.20
2022-08-28T11:56:29.116Z,61.54
2022-08-28T11:59:20.646Z,61.67
2022-08-28T12:01:48.808Z,60.98
2022-08-28T12:04:17.529Z,62.04
2022-08-28T12:06:50.239Z,62.31
2022-08-28T12:09:35.117Z,61.00
2022-08-28T12:12:04.305Z,60.23
2022-08-28T12:14:31.349Z,59.43
2022-08-28T12:17:07.757Z,59.41
2022-08-28T12:19:41.170Z,61.40
2022-08-28T12:22:26.723Z,61.55
2022-08-28T12:25:05.667Z,60.06
2022-08-28T12:27:36.516Z,60.50
2022-08-28T12:30:06.857Z,59.20
2022-08-28T12:32:42.216Z,60.28
2022-08-28T12:35:08.696Z,61.12
2022-08-28T12:37:42.932Z,59.33
2022-08-28T12:40:27.450Z,60.80
2022-08-28T12:43:02.848Z,61.92
2022-08-28T12:45:33.002Z,62.61
2022-08-28T12:48:00.734Z,61.58
2022-08-28T12:50:30.095Z,60.76
2022-08-28T12:52:58.514Z,61.16
2022-08-28T12:55:25.075Z,60.17
2022-08-28T12:57:51.738Z,60.71
2022-08-28T13:00:23.300Z,61.80
2022-08-28T13:02:53.133Z,62.23
2022-08-28T13:05:27.184Z,61.57
2022-08-28T13:07:59.292Z,61.08
2022-08-28T13:10:29.626Z,61.55
2022-08-28T13:13:07.273Z,61.13
2022-08-28T13:15:51.858Z,59.96
2022-08-28T13:18:36.979Z,60.74
2022-08-28T13:21:12.724Z,60.51
2022-08-28T13:23:39.371Z,58.79
2022-08-28T13:26:06.692Z,58.32
2022-08-28T13:28:37.517Z,58.97
2022-08-28T13:31:04.699Z,59.99
2022-08-28T13:33:31.395Z,60.34
2022-08-28T13:36:01.228Z,58.78
2022-08-28T13:38:27.709Z,58.58
2022-08-28T13:40:59.632Z,58.50
2022-08-28T13:43:28.471Z,58.14
2022-08-28T13:45:55.194Z,58.78
2022-08-28T13:48:23.162Z,58.49
2022-08-28T13:50:51.442Z,58.47
2022-08-28T13:53:18.598Z,58.34
2022-08-28T13:55:48.513Z,58.60
2022-08-28T13:58:16.035Z,57.78
2022-08-28T14:00:46.983Z,56.97
2022-08-28T14:03:32.107Z,57.30
2022-08-28T14:05:58.509Z,56.78
2022-08-28T14:08:25.303Z,56.02
2022-08-28T14:10:54.303Z,55.72
2022-08-28T14:13:23.058Z,55.90
2022-08-28T14:15:49.780Z,57.41
2022-08-28T14:18:18.048Z,55.67
2022-08-28T14:20:44.487Z,57.66
2022-08-28T14:23:12.447Z,58.28
2022-08-28T14:25:42.490Z,58.42
2022-08-28T14:28:12.560Z,58.22
2022-08-28T14:30:46.590Z,55.62
2022-08-28T14:33:15.350Z,54.50
2022-08-28T14:35:41.944Z,54.79
2022-08-28T14:38:09.597Z,55.59
2022-08-28T14:40:38.375Z,57.05
2022-08-28T14:43:05.465Z,57.18
2022-08-28T14:45:32.060Z,57.62
2022-08-28T14:47:58.508Z,57.17
2022-08-28T14:50:24.956Z,56.82
2022-08-28T14:52:57.113Z,57.11
2022-08-28T14:55:23.588Z,57.26
2022-08-28T14:57:51.244Z,56.51
2022-08-28T15:00:17.901Z,57.24
2022-08-28T15:02:44.966Z,57.62
2022-08-28T15:05:11.899Z,57.36
2022-08-28T15:07:38.414Z,57.42
2022-08-28T15:10:05.008Z,56.44
2022-08-28T15:12:31.625Z,56.40
2022-08-28T15:14:58.101Z,55.60
2022-08-28T15:17:33.891Z,55.86
2022-08-28T15:20:01.048Z,56.29
2022-08-28T15:22:27.656Z,56.38
2022-08-28T15:24:55.574Z,56.76
2022-08-28T15:27:25.591Z,54.02
2022-08-28T15:29:52.236Z,54.68
2022-08-28T15:32:18.667Z,55.08
2022-08-28T15:34:45.077Z,56.17
2022-08-28T15:37:13.353Z,54.26
2022-08-28T15:39:58.629Z,54.60
2022-08-28T15:42:25.098Z,56.21
2022-08-28T15:44:51.562Z,55.18
2022-08-28T15:47:18.963Z,54.38
2022-08-28T15:49:49.709Z,52.69
2022-08-28T15:52:16.863Z,52.74
2022-08-28T15:54:43.270Z,53.36
2022-08-28T15:57:12.695Z,54.68
2022-08-28T15:59:49.516Z,54.28
2022-08-28T16:02:17.798Z,54.71
2022-08-28T16:04:44.264Z,54.79
2022-08-28T16:07:13.542Z,55.05
2022-08-28T16:09:39.977Z,54.20
2022-08-28T16:12:06.543Z,55.75
2022-08-28T16:14:33.119Z,56.68
2022-08-28T16:17:10.702Z,56.50
2022-08-28T16:19:38.548Z,55.70
2022-08-28T16:22:04.992Z,56.08
2022-08-28T16:24:31.448Z,54.57
2022-08-28T16:26:57.818Z,55.57
2022-08-28T16:29:24.296Z,53.49
2022-08-28T16:31:50.732Z,54.39
2022-08-28T16:34:19.613Z,55.57
2022-08-28T16:36:53.060Z,56.39
2022-08-28T16:39:19.534Z,56.07
2022-08-28T16:41:49.885Z,56.22
2022-08-28T16:44:19.833Z,56.98
2022-08-28T16:46:46.830Z,56.78
2022-08-28T16:49:13.456Z,56.78
2022-08-28T16:51:41.949Z,56.93
2022-08-28T16:54:08.410Z,57.35
2022-08-28T16:56:35.342Z,56.66
2022-08-28T16:59:02.063Z,56.78
2022-08-28T17:01:28.702Z,56.97
2022-08-28T17:03:55.939Z,57.61
2022-08-28T17:06:23.987Z,58.48
2022-08-28T17:08:55.911Z,58.13
2022-08-28T17:11:24.179Z,58.40
2022-08-28T17:13:50.605Z,57.92
2022-08-28T17:16:18.733Z,58.36
2022-08-28T17:18:47.401Z,58.91
2022-08-28T17:21:33.674Z,59.34
2022-08-28T17:24:00.177Z,59.08
2022-08-28T17:26:26.603Z,58.99
2022-08-28T17:28:53.053Z,58.52
2022-08-28T17:31:19.950Z,58.40
2022-08-28T17:33:46.438Z,58.77
2022-08-28T17:36:30.733Z,59.12
2022-08-28T17:39:03.662Z,58.61
2022-08-28T17:41:30.213Z,59.06
2022-08-28T17:43:56.799Z,58.74
2022-08-28T17:46:23.336Z,58.78
2022-08-28T17:48:56.060Z,59.17
2022-08-28T17:51:43.070Z,59.59
2022-08-28T17:54:11.649Z,60.29
2022-08-28T17:56:38.143Z,60.24
2022-08-28T17:59:05.025Z,60.25
2022-08-28T18:01:31.553Z,60.81
2022-08-28T18:03:58.147Z,60.83
2022-08-28T18:06:24.988Z,60.99
2022-08-28T18:08:51.870Z,61.69
2022-08-28T18:11:19.141Z,62.17
2022-08-28T18:13:46.193Z,61.63
2022-08-28T18:16:12.805Z,61.98
2022-08-28T18:18:39.309Z,62.37
2022-08-28T18:21:05.783Z,62.44
2022-08-28T18:23:37.686Z,63.17
2022-08-28T18:26:04.093Z,62.97
2022-08-28T18:28:31.991Z,62.63
2022-08-28T18:31:01.820Z,61.85
2022-08-28T18:33:29.627Z,61.93
2022-08-28T18:35:57.237Z,61.78
2022-08-28T18:38:27.830Z,61.73
2022-08-28T18:40:54.618Z,61.02
2022-08-28T18:43:22.487Z,61.23
2022-08-28T18:45:49.094Z,62.01
2022-08-28T18:48:15.655Z,62.56
2022-08-28T18:50:46.173Z,62.90
2022-08-28T18:53:13.838Z,62.74
2022-08-28T18:55:40.288Z,62.70
2022-08-28T18:58:14.003Z,62.91
2022-08-28T19:00:41.992Z,63.79
2022-08-28T19:03:09.291Z,64.44
2022-08-28T19:05:36.432Z,64.84
2022-08-28T19:08:02.907Z,64.73
2022-08-28T19:10:33.855Z,65.65
2022-08-28T19:13:04.383Z,65.66
2022-08-28T19:15:33.212Z,65.53
2022-08-28T19:18:06.375Z,65.90
2022-08-28T19:20:33.539Z,66.00
2022-08-28T19:23:00.387Z,66.41
2022-08-28T19:25:29.278Z,66.22
2022-08-28T19:28:02.655Z,65.87
2022-08-28T19:30:32.935Z,66.69
2022-08-28T19:33:00.742Z,67.03
2022-08-28T19:35:27.189Z,66.70
2022-08-28T19:37:54.047Z,67.40
2022-08-28T19:40:20.914Z,67.21
2022-08-28T19:42:51.244Z,67.13
2022-08-28T19:45:18.235Z,67.25
2022-08-28T19:47:48.132Z,67.44
2022-08-28T19:50:15.559Z,67.77
2022-08-28T19:52:43.070Z,68.05
2022-08-28T19:55:13.107Z,67.98
2022-08-28T19:57:39.704Z,68.67
2022-08-28T20:00:06.349Z,69.07
2022-08-28T20:02:36.597Z,68.90
2022-08-28T20:05:06.490Z,68.63
2022-08-28T20:07:34.613Z,69.50
2022-08-28T20:10:01.429Z,69.55
2022-08-28T20:12:27.911Z,69.24
2022-08-28T20:14:54.320Z,69.19
2022-08-28T20:17:20.775Z,69.63
2022-08-28T20:19:48.979Z,69.96
2022-08-28T20:22:15.750Z,69.92
2022-08-28T20:24:42.185Z,70.29
2022-08-28T20:27:08.691Z,70.45
2022-08-28T20:29:35.150Z,70.42
2022-08-28T20:32:04.527Z,70.38
2022-08-28T20:34:30.920Z,70.87
2022-08-28T20:36:57.349Z,71.33
2022-08-28T20:39:23.768Z,71.20
2022-08-28T20:41:50.251Z,71.51
2022-08-28T20:44:17.800Z,71.65
2022-08-28T20:46:44.595Z,71.70
2022-08-28T20:49:17.778Z,72.29
2022-08-28T20:51:53.788Z,72.17
2022-08-28T20:54:21.506Z,72.35
2022-08-28T20:56:48.503Z,71.95
2022-08-28T20:59:14.960Z,72.71
2022-08-28T21:01:41.631Z,73.54
2022-08-28T21:04:08.267Z,72.86
2022-08-28T21:06:34.799Z,73.76
2022-08-28T21:09:04.190Z,73.70
2022-08-28T21:11:31.162Z,73.76
2022-08-28T21:13:59.503Z,73.74
2022-08-28T21:16:26.082Z,74.02
2022-08-28T21:19:14.487Z,74.52
2022-08-28T21:21:39.478Z,73.95
2022-08-28T21:24:06.763Z,74.12
2022-08-28T21:26:33.232Z,73.83
2022-08-28T21:29:00.783Z,74.70
2022-08-28T21:31:27.315Z,74.96
2022-08-28T21:33:53.904Z,76.05
2022-08-28T21:36:20.352Z,75.80
2022-08-28T21:38:47.356Z,75.65
2022-08-28T21:41:14.764Z,75.93
2022-08-28T21:43:45.354Z,76.59
2022-08-28T21:46:16.391Z,76.33
2022-08-28T21:48:43.410Z,76.05
2022-08-28T21:51:12.378Z,76.44
2022-08-28T21:53:39.948Z,76.34
2022-08-28T21:56:07.418Z,76.22
2022-08-28T21:58:36.077Z,76.13
2022-08-28T22:01:02.747Z,75.94
2022-08-28T22:03:29.247Z,76.31
2022-08-28T22:05:56.341Z,76.51
2022-08-28T22:08:24.757Z,76.77
2022-08-28T22:10:51.715Z,77.09
2022-08-28T22:13:18.520Z,77.47
2022-08-28T22:15:46.115Z,77.06
2022-08-28T22:18:14.175Z,77.69
2022-08-28T22:21:01.535Z,77.58
2022-08-28T22:23:29.003Z,77.52
2022-08-28T22:25:55.423Z,78.09
2022-08-28T22:28:21.870Z,79.12
2022-08-28T22:30:51.900Z,78.57
2022-08-28T22:33:18.296Z,78.85
2022-08-28T22:35:44.893Z,78.75
2022-08-28T22:38:11.313Z,79.12
2022-08-28T22:40:37.860Z,79.47
2022-08-28T22:43:04.256Z,78.71
2022-08-28T22:45:31.468Z,79.24
2022-08-28T22:47:58.006Z,79.67
2022-08-28T22:50:24.409Z,79.97
2022-08-28T22:52:50.917Z,80.78
2022-08-28T22:55:18.346Z,80.99
2022-08-28T22:57:48.049Z,80.21
2022-08-28T23:00:16.455Z,80.57
2022-08-28T23:02:43.642Z,80.54
2022-08-28T23:05:10.663Z,80.69
2022-08-28T23:07:37.125Z,80.52
2022-08-28T23:10:04.644Z,80.00
2022-08-28T23:12:31.161Z,80.32
2022-08-28T23:14:59.804Z,80.74
2022-08-28T23:17:26.272Z,80.68
2022-08-28T23:19:52.711Z,80.78
2022-08-28T23:22:19.396Z,81.13
2022-08-28T23:24:46.934Z,80.87
2022-08-28T23:27:34.602Z,80.69
2022-08-28T23:29:59.940Z,81.13
2022-08-28T23:32:26.385Z,81.38
2022-08-28T23:34:52.820Z,81.06
2022-08-28T23:37:19.234Z,80.90
2022-08-28T23:39:46.243Z,80.66
2022-08-28T23:42:16.798Z,80.75
2022-08-28T23:44:43.257Z,80.79
2022-08-28T23:47:12.021Z,81.06
2022-08-28T23:49:42.629Z,81.12
2022-08-28T23:52:09.335Z,80.93
2022-08-28T23:54:36.528Z,81.02
2022-08-28T23:57:06.749Z,81.21
2022-08-28T23:59:33.534Z,81.20
